sensor_id;sensor_type;location;lat;lon;timestamp;pressure;altitude;pressure_sealevel;temperature;humidity
45275;BME280;31019;43.780;25.948;2023-03-13T00:01:32;101553.81;;;-1.42;100.00
45275;BME280;31019;43.780;25.948;2023-03-13T00:03:59;101565.00;;;-1.78;100.00
45275;BME280;31019;43.780;25.948;2023-03-13T00:06:28;101564.16;;;-1.66;100.00
45275;BME280;31019;43.780;25.948;2023-03-13T00:08:57;101571.78;;;-1.63;100.00
45275;BME280;31019;43.780;25.948;2023-03-13T00:11:25;101569.56;;;-1.56;100.00
45275;BME280;31019;43.780;25.948;2023-03-13T00:13:55;101580.50;;;-1.64;100.00
45275;BME280;31019;43.780;25.948;2023-03-13T00:16:22;101576.13;;;-1.76;100.00
45275;BME280;31019;43.780;25.948;2023-03-13T00:18:51;101576.56;;;-1.82;100.00
45275;BME280;31019;43.780;25.948;2023-03-13T00:21:20;101580.81;;;-1.94;100.00
45275;BME280;31019;43.780;25.948;2023-03-13T00:23:48;101582.31;;;-1.90;100.00
45275;BME280;31019;43.780;25.948;2023-03-13T00:26:17;101580.94;;;-1.95;100.00
45275;BME280;31019;43.780;25.948;2023-03-13T00:28:44;101576.47;;;-1.80;100.00
45275;BME280;31019;43.780;25.948;2023-03-13T00:31:14;101585.13;;;-1.80;100.00
45275;BME280;31019;43.780;25.948;2023-03-13T00:33:42;101584.38;;;-2.08;100.00
45275;BME280;31019;43.780;25.948;2023-03-13T00:36:11;101582.41;;;-1.78;100.00
45275;BME280;31019;43.780;25.948;2023-03-13T00:38:38;101585.31;;;-1.96;100.00
45275;BME280;31019;43.780;25.948;2023-03-13T00:41:06;101593.25;;;-1.85;100.00
45275;BME280;31019;43.780;25.948;2023-03-13T00:43:36;101592.38;;;-1.98;100.00
45275;BME280;31019;43.780;25.948;2023-03-13T00:46:03;101593.63;;;-1.91;100.00
45275;BME280;31019;43.780;25.948;2023-03-13T00:48:32;101587.81;;;-2.07;100.00
45275;BME280;31019;43.780;25.948;2023-03-13T00:50:59;101592.38;;;-1.98;100.00
45275;BME280;31019;43.780;25.948;2023-03-13T00:53:26;101592.63;;;-2.41;100.00
45275;BME280;31019;43.780;25.948;2023-03-13T00:55:54;101593.44;;;-2.53;100.00
45275;BME280;31019;43.780;25.948;2023-03-13T00:58:22;101598.75;;;-2.15;100.00
45275;BME280;31019;43.780;25.948;2023-03-13T01:00:49;101601.97;;;-2.11;100.00
45275;BME280;31019;43.780;25.948;2023-03-13T01:03:16;101607.28;;;-2.00;100.00
45275;BME280;31019;43.780;25.948;2023-03-13T01:05:45;101612.06;;;-2.07;100.00
45275;BME280;31019;43.780;25.948;2023-03-13T01:08:20;101609.47;;;-1.94;100.00
45275;BME280;31019;43.780;25.948;2023-03-13T01:10:47;101608.47;;;-2.31;100.00
45275;BME280;31019;43.780;25.948;2023-03-13T01:13:13;101604.94;;;-2.30;100.00
45275;BME280;31019;43.780;25.948;2023-03-13T01:15:40;101610.06;;;-2.16;100.00
45275;BME280;31019;43.780;25.948;2023-03-13T01:18:07;101614.78;;;-1.95;100.00
45275;BME280;31019;43.780;25.948;2023-03-13T01:20:34;101610.31;;;-1.93;100.00
45275;BME280;31019;43.780;25.948;2023-03-13T01:23:02;101611.97;;;-1.92;100.00
45275;BME280;31019;43.780;25.948;2023-03-13T01:25:29;101608.63;;;-2.20;100.00
45275;BME280;31019;43.780;25.948;2023-03-13T01:27:56;101616.97;;;-2.02;100.00
45275;BME280;31019;43.780;25.948;2023-03-13T01:30:22;101621.31;;;-2.15;100.00
45275;BME280;31019;43.780;25.948;2023-03-13T01:32:49;101627.66;;;-2.19;100.00
45275;BME280;31019;43.780;25.948;2023-03-13T01:35:16;101621.44;;;-2.17;100.00
45275;BME280;31019;43.780;25.948;2023-03-13T01:37:44;101620.13;;;-2.37;100.00
45275;BME280;31019;43.780;25.948;2023-03-13T01:40:12;101622.13;;;-2.27;100.00
45275;BME280;31019;43.780;25.948;2023-03-13T01:42:53;101623.09;;;-2.16;100.00
45275;BME280;31019;43.780;25.948;2023-03-13T01:45:59;101628.06;;;-2.25;100.00
45275;BME280;31019;43.780;25.948;2023-03-13T01:48:31;101630.94;;;-2.43;100.00
45275;BME280;31019;43.780;25.948;2023-03-13T01:51:02;101631.47;;;-2.38;100.00
45275;BME280;31019;43.780;25.948;2023-03-13T01:53:32;101633.13;;;-2.37;100.00
45275;BME280;31019;43.780;25.948;2023-03-13T01:56:05;101627.00;;;-2.90;100.00
45275;BME280;31019;43.780;25.948;2023-03-13T01:58:34;101639.09;;;-2.62;100.00
45275;BME280;31019;43.780;25.948;2023-03-13T02:01:04;101640.63;;;-2.45;100.00
45275;BME280;31019;43.780;25.948;2023-03-13T02:03:32;101635.84;;;-2.38;100.00
45275;BME280;31019;43.780;25.948;2023-03-13T02:06:01;101640.84;;;-2.35;100.00
45275;BME280;31019;43.780;25.948;2023-03-13T02:08:31;101643.84;;;-2.41;100.00
45275;BME280;31019;43.780;25.948;2023-03-13T02:11:07;101644.09;;;-2.59;100.00
45275;BME280;31019;43.780;25.948;2023-03-13T02:13:36;101645.31;;;-2.64;100.00
45275;BME280;31019;43.780;25.948;2023-03-13T02:16:03;101650.03;;;-2.57;100.00
45275;BME280;31019;43.780;25.948;2023-03-13T02:18:31;101649.28;;;-2.59;100.00
45275;BME280;31019;43.780;25.948;2023-03-13T02:21:04;101654.09;;;-2.53;100.00
45275;BME280;31019;43.780;25.948;2023-03-13T02:23:38;101652.25;;;-2.50;100.00
45275;BME280;31019;43.780;25.948;2023-03-13T02:26:09;101668.72;;;-2.64;100.00
45275;BME280;31019;43.780;25.948;2023-03-13T02:28:37;101672.06;;;-2.62;100.00
45275;BME280;31019;43.780;25.948;2023-03-13T02:31:05;101670.03;;;-2.57;100.00
45275;BME280;31019;43.780;25.948;2023-03-13T02:33:35;101675.06;;;-2.68;100.00
45275;BME280;31019;43.780;25.948;2023-03-13T02:36:04;101674.22;;;-2.69;100.00
45275;BME280;31019;43.780;25.948;2023-03-13T02:38:36;101678.13;;;-2.76;100.00
45275;BME280;31019;43.780;25.948;2023-03-13T02:41:05;101679.16;;;-2.79;100.00
45275;BME280;31019;43.780;25.948;2023-03-13T02:43:34;101689.66;;;-2.80;100.00
45275;BME280;31019;43.780;25.948;2023-03-13T02:46:07;101686.44;;;-2.84;100.00
45275;BME280;31019;43.780;25.948;2023-03-13T02:48:36;101679.91;;;-2.77;100.00
45275;BME280;31019;43.780;25.948;2023-03-13T02:51:07;101691.50;;;-2.68;100.00
45275;BME280;31019;43.780;25.948;2023-03-13T02:53:36;101697.72;;;-2.85;100.00
45275;BME280;31019;43.780;25.948;2023-03-13T02:56:04;101702.22;;;-3.01;100.00
45275;BME280;31019;43.780;25.948;2023-03-13T02:58:37;101714.75;;;-3.08;100.00
45275;BME280;31019;43.780;25.948;2023-03-13T03:03:39;101722.34;;;-3.33;100.00
45275;BME280;31019;43.780;25.948;2023-03-13T03:06:06;101728.69;;;-3.23;100.00
45275;BME280;31019;43.780;25.948;2023-03-13T03:08:34;101718.84;;;-3.04;100.00
45275;BME280;31019;43.780;25.948;2023-03-13T03:11:01;101718.66;;;-2.86;100.00
45275;BME280;31019;43.780;25.948;2023-03-13T03:13:30;101726.72;;;-2.91;100.00
45275;BME280;31019;43.780;25.948;2023-03-13T03:16:00;101730.72;;;-2.85;100.00
45275;BME280;31019;43.780;25.948;2023-03-13T03:18:30;101728.13;;;-3.14;100.00
45275;BME280;31019;43.780;25.948;2023-03-13T03:20:57;101732.59;;;-2.87;100.00
45275;BME280;31019;43.780;25.948;2023-03-13T03:23:24;101747.44;;;-2.89;100.00
45275;BME280;31019;43.780;25.948;2023-03-13T03:25:51;101753.81;;;-3.09;100.00
45275;BME280;31019;43.780;25.948;2023-03-13T03:28:17;101750.88;;;-3.17;100.00
45275;BME280;31019;43.780;25.948;2023-03-13T03:30:44;101745.31;;;-3.11;100.00
45275;BME280;31019;43.780;25.948;2023-03-13T03:33:12;101751.97;;;-3.07;100.00
45275;BME280;31019;43.780;25.948;2023-03-13T03:35:39;101761.13;;;-3.30;100.00
45275;BME280;31019;43.780;25.948;2023-03-13T03:38:05;101761.16;;;-3.16;100.00
45275;BME280;31019;43.780;25.948;2023-03-13T03:40:32;101763.13;;;-2.91;100.00
45275;BME280;31019;43.780;25.948;2023-03-13T03:42:59;101780.38;;;-2.47;100.00
45275;BME280;31019;43.780;25.948;2023-03-13T03:45:25;101787.00;;;-2.84;100.00
45275;BME280;31019;43.780;25.948;2023-03-13T03:47:52;101782.69;;;-3.00;100.00
45275;BME280;31019;43.780;25.948;2023-03-13T03:50:20;101789.00;;;-2.61;100.00
45275;BME280;31019;43.780;25.948;2023-03-13T03:52:47;101805.09;;;-2.54;100.00
45275;BME280;31019;43.780;25.948;2023-03-13T03:55:16;101800.56;;;-2.93;100.00
45275;BME280;31019;43.780;25.948;2023-03-13T03:57:42;101803.22;;;-2.95;100.00
45275;BME280;31019;43.780;25.948;2023-03-13T04:00:10;101798.69;;;-2.91;100.00
45275;BME280;31019;43.780;25.948;2023-03-13T04:02:40;101810.31;;;-2.83;100.00
45275;BME280;31019;43.780;25.948;2023-03-13T04:05:07;101809.09;;;-2.63;100.00
45275;BME280;31019;43.780;25.948;2023-03-13T04:07:36;101818.38;;;-2.59;100.00
45275;BME280;31019;43.780;25.948;2023-03-13T04:10:03;101817.63;;;-2.61;100.00
45275;BME280;31019;43.780;25.948;2023-03-13T04:12:30;101828.13;;;-2.91;100.00
45275;BME280;31019;43.780;25.948;2023-03-13T04:14:57;101822.19;;;-3.37;100.00
45275;BME280;31019;43.780;25.948;2023-03-13T04:17:23;101825.06;;;-2.97;100.00
45275;BME280;31019;43.780;25.948;2023-03-13T04:19:51;101823.56;;;-3.02;100.00
45275;BME280;31019;43.780;25.948;2023-03-13T04:22:18;101820.88;;;-3.00;100.00
45275;BME280;31019;43.780;25.948;2023-03-13T04:24:46;101841.38;;;-3.10;100.00
45275;BME280;31019;43.780;25.948;2023-03-13T04:27:13;101852.88;;;-3.00;100.00
45275;BME280;31019;43.780;25.948;2023-03-13T04:29:39;101850.28;;;-3.00;100.00
45275;BME280;31019;43.780;25.948;2023-03-13T04:32:06;101857.00;;;-2.95;100.00
45275;BME280;31019;43.780;25.948;2023-03-13T04:34:33;101854.72;;;-3.16;100.00
45275;BME280;31019;43.780;25.948;2023-03-13T04:37:00;101853.31;;;-3.22;100.00
45275;BME280;31019;43.780;25.948;2023-03-13T04:39:26;101858.25;;;-3.17;100.00
45275;BME280;31019;43.780;25.948;2023-03-13T04:41:55;101864.19;;;-3.15;100.00
45275;BME280;31019;43.780;25.948;2023-03-13T04:44:22;101864.97;;;-3.59;100.00
45275;BME280;31019;43.780;25.948;2023-03-13T04:46:49;101864.06;;;-3.28;100.00
45275;BME280;31019;43.780;25.948;2023-03-13T04:49:15;101862.66;;;-2.89;100.00
45275;BME280;31019;43.780;25.948;2023-03-13T04:51:43;101873.09;;;-2.74;100.00
45275;BME280;31019;43.780;25.948;2023-03-13T04:54:10;101870.59;;;-2.62;100.00
45275;BME280;31019;43.780;25.948;2023-03-13T04:56:37;101872.19;;;-3.04;100.00
45275;BME280;31019;43.780;25.948;2023-03-13T04:59:05;101881.94;;;-2.63;100.00
45275;BME280;31019;43.780;25.948;2023-03-13T05:01:32;101882.94;;;-2.37;100.00
45275;BME280;31019;43.780;25.948;2023-03-13T05:03:59;101880.06;;;-2.18;100.00
45275;BME280;31019;43.780;25.948;2023-03-13T05:06:26;101878.25;;;-1.89;100.00
45275;BME280;31019;43.780;25.948;2023-03-13T05:08:52;101894.16;;;-1.93;100.00
45275;BME280;31019;43.780;25.948;2023-03-13T05:11:19;101894.41;;;-1.83;100.00
45275;BME280;31019;43.780;25.948;2023-03-13T05:13:46;101894.69;;;-1.88;100.00
45275;BME280;31019;43.780;25.948;2023-03-13T05:16:14;101897.59;;;-1.78;100.00
45275;BME280;31019;43.780;25.948;2023-03-13T05:18:41;101890.44;;;-1.89;100.00
45275;BME280;31019;43.780;25.948;2023-03-13T05:21:08;101893.66;;;-1.86;100.00
45275;BME280;31019;43.780;25.948;2023-03-13T05:23:35;101896.97;;;-2.11;100.00
45275;BME280;31019;43.780;25.948;2023-03-13T05:26:01;101908.59;;;-2.16;100.00
45275;BME280;31019;43.780;25.948;2023-03-13T05:28:28;101903.38;;;-2.02;100.00
45275;BME280;31019;43.780;25.948;2023-03-13T05:30:55;101900.91;;;-1.76;100.00
45275;BME280;31019;43.780;25.948;2023-03-13T05:33:23;101904.44;;;-1.77;100.00
45275;BME280;31019;43.780;25.948;2023-03-13T05:35:50;101895.03;;;-1.66;100.00
45275;BME280;31019;43.780;25.948;2023-03-13T05:38:16;101905.97;;;-1.33;100.00
45275;BME280;31019;43.780;25.948;2023-03-13T05:40:43;101905.38;;;-0.84;100.00
45275;BME280;31019;43.780;25.948;2023-03-13T05:43:10;101897.84;;;-0.76;100.00
45275;BME280;31019;43.780;25.948;2023-03-13T05:45:37;101900.28;;;-0.60;100.00
45275;BME280;31019;43.780;25.948;2023-03-13T05:48:04;101904.44;;;-0.45;100.00
45275;BME280;31019;43.780;25.948;2023-03-13T05:50:32;101903.34;;;-0.17;100.00
45275;BME280;31019;43.780;25.948;2023-03-13T05:52:59;101907.34;;;-0.24;100.00
45275;BME280;31019;43.780;25.948;2023-03-13T05:55:26;101915.38;;;-0.40;100.00
45275;BME280;31019;43.780;25.948;2023-03-13T05:57:53;101917.38;;;0.19;100.00
45275;BME280;31019;43.780;25.948;2023-03-13T06:00:20;101917.88;;;0.61;100.00
45275;BME280;31019;43.780;25.948;2023-03-13T06:02:47;101916.03;;;0.50;100.00
45275;BME280;31019;43.780;25.948;2023-03-13T06:05:13;101918.63;;;0.74;100.00
45275;BME280;31019;43.780;25.948;2023-03-13T06:07:42;101918.88;;;1.18;100.00
45275;BME280;31019;43.780;25.948;2023-03-13T06:10:09;101922.97;;;1.33;100.00
45275;BME280;31019;43.780;25.948;2023-03-13T06:12:36;101921.97;;;1.11;100.00
45275;BME280;31019;43.780;25.948;2023-03-13T06:15:04;101921.47;;;1.53;100.00
45275;BME280;31019;43.780;25.948;2023-03-13T06:17:34;101931.22;;;1.84;100.00
45275;BME280;31019;43.780;25.948;2023-03-13T06:20:00;101926.69;;;1.75;100.00
45275;BME280;31019;43.780;25.948;2023-03-13T06:22:27;101924.78;;;2.11;100.00
45275;BME280;31019;43.780;25.948;2023-03-13T06:24:56;101933.72;;;2.20;100.00
45275;BME280;31019;43.780;25.948;2023-03-13T06:27:23;101924.63;;;2.24;100.00
45275;BME280;31019;43.780;25.948;2023-03-13T06:29:50;101923.13;;;2.65;100.00
45275;BME280;31019;43.780;25.948;2023-03-13T06:32:16;101923.66;;;2.80;100.00
45275;BME280;31019;43.780;25.948;2023-03-13T06:34:43;101909.03;;;2.98;100.00
45275;BME280;31019;43.780;25.948;2023-03-13T06:37:10;101899.97;;;3.33;100.00
45275;BME280;31019;43.780;25.948;2023-03-13T06:39:36;101891.59;;;3.39;100.00
45275;BME280;31019;43.780;25.948;2023-03-13T06:42:05;101894.75;;;3.63;100.00
45275;BME280;31019;43.780;25.948;2023-03-13T06:44:32;101879.03;;;3.73;100.00
45275;BME280;31019;43.780;25.948;2023-03-13T06:46:59;101881.56;;;3.84;100.00
45275;BME280;31019;43.780;25.948;2023-03-13T06:49:26;101876.09;;;4.17;100.00
45275;BME280;31019;43.780;25.948;2023-03-13T06:51:52;101878.47;;;4.29;100.00
45275;BME280;31019;43.780;25.948;2023-03-13T06:54:19;101883.75;;;4.39;100.00
45275;BME280;31019;43.780;25.948;2023-03-13T06:56:46;101884.16;;;4.83;100.00
45275;BME280;31019;43.780;25.948;2023-03-13T06:59:14;101882.63;;;5.00;100.00
45275;BME280;31019;43.780;25.948;2023-03-13T07:01:41;101884.16;;;4.83;100.00
45275;BME280;31019;43.780;25.948;2023-03-13T07:04:10;101885.69;;;4.86;100.00
45275;BME280;31019;43.780;25.948;2023-03-13T07:06:37;101890.75;;;6.46;100.00
45275;BME280;31019;43.780;25.948;2023-03-13T07:09:04;101888.56;;;5.59;100.00
45275;BME280;31019;43.780;25.948;2023-03-13T07:11:31;101895.50;;;5.13;100.00
45275;BME280;31019;43.780;25.948;2023-03-13T07:13:58;101897.47;;;4.91;100.00
45275;BME280;31019;43.780;25.948;2023-03-13T07:16:27;101896.88;;;5.17;100.00
45275;BME280;31019;43.780;25.948;2023-03-13T07:18:54;101889.59;;;5.38;100.00
45275;BME280;31019;43.780;25.948;2023-03-13T07:21:21;101893.22;;;5.37;100.00
45275;BME280;31019;43.780;25.948;2023-03-13T07:23:47;101881.88;;;6.02;100.00
45275;BME280;31019;43.780;25.948;2023-03-13T07:26:15;101885.84;;;4.94;100.00
45275;BME280;31019;43.780;25.948;2023-03-13T07:28:42;101893.31;;;5.55;100.00
45275;BME280;31019;43.780;25.948;2023-03-13T07:31:11;101887.72;;;6.23;100.00
45275;BME280;31019;43.780;25.948;2023-03-13T07:33:41;101901.47;;;6.62;100.00
45275;BME280;31019;43.780;25.948;2023-03-13T07:36:08;101900.63;;;6.80;100.00
45275;BME280;31019;43.780;25.948;2023-03-13T07:38:35;101889.78;;;6.65;100.00
45275;BME280;31019;43.780;25.948;2023-03-13T07:41:02;101883.16;;;6.79;100.00
45275;BME280;31019;43.780;25.948;2023-03-13T07:43:29;101884.47;;;6.11;100.00
45275;BME280;31019;43.780;25.948;2023-03-13T07:45:58;101881.09;;;7.77;100.00
45275;BME280;31019;43.780;25.948;2023-03-13T07:48:28;101891.88;;;6.43;100.00
45275;BME280;31019;43.780;25.948;2023-03-13T07:50:57;101886.06;;;6.94;100.00
45275;BME280;31019;43.780;25.948;2023-03-13T07:53:25;101875.03;;;7.50;100.00
45275;BME280;31019;43.780;25.948;2023-03-13T07:55:54;101892.00;;;7.74;100.00
45275;BME280;31019;43.780;25.948;2023-03-13T07:58:21;101893.53;;;7.85;100.00
45275;BME280;31019;43.780;25.948;2023-03-13T08:00:48;101896.41;;;7.99;100.00
45275;BME280;31019;43.780;25.948;2023-03-13T08:03:15;101896.72;;;7.62;100.00
45275;BME280;31019;43.780;25.948;2023-03-13T08:05:42;101898.34;;;7.55;100.00
45275;BME280;31019;43.780;25.948;2023-03-13T08:08:10;101886.31;;;8.70;100.00
45275;BME280;31019;43.780;25.948;2023-03-13T08:10:36;101890.28;;;9.15;100.00
45275;BME280;31019;43.780;25.948;2023-03-13T08:13:03;101891.56;;;7.52;100.00
45275;BME280;31019;43.780;25.948;2023-03-13T08:15:30;101887.78;;;7.97;100.00
45275;BME280;31019;43.780;25.948;2023-03-13T08:17:57;101885.28;;;9.28;100.00
45275;BME280;31019;43.780;25.948;2023-03-13T08:20:23;101882.19;;;7.58;100.00
45275;BME280;31019;43.780;25.948;2023-03-13T08:22:50;101880.19;;;8.61;100.00
45275;BME280;31019;43.780;25.948;2023-03-13T08:25:18;101888.94;;;8.45;100.00
45275;BME280;31019;43.780;25.948;2023-03-13T08:27:45;101879.72;;;7.30;100.00
45275;BME280;31019;43.780;25.948;2023-03-13T08:30:12;101883.41;;;8.14;100.00
45275;BME280;31019;43.780;25.948;2023-03-13T08:32:39;101882.69;;;8.79;100.00
45275;BME280;31019;43.780;25.948;2023-03-13T08:35:07;101865.44;;;8.83;100.00
45275;BME280;31019;43.780;25.948;2023-03-13T08:37:34;101878.53;;;8.93;100.00
45275;BME280;31019;43.780;25.948;2023-03-13T08:40:00;101876.19;;;10.41;100.00
45275;BME280;31019;43.780;25.948;2023-03-13T08:42:29;101874.34;;;9.79;100.00
45275;BME280;31019;43.780;25.948;2023-03-13T08:44:56;101870.47;;;10.29;100.00
45275;BME280;31019;43.780;25.948;2023-03-13T08:47:23;101866.16;;;11.41;92.84
45275;BME280;31019;43.780;25.948;2023-03-13T08:49:49;101867.72;;;10.83;93.33
45275;BME280;31019;43.780;25.948;2023-03-13T08:52:16;101866.16;;;11.27;91.26
45275;BME280;31019;43.780;25.948;2023-03-13T08:54:43;101857.53;;;11.39;83.84
45275;BME280;31019;43.780;25.948;2023-03-13T08:57:09;101860.28;;;9.70;84.51
45275;BME280;31019;43.780;25.948;2023-03-13T08:59:38;101853.75;;;11.19;79.56
45275;BME280;31019;43.780;25.948;2023-03-13T09:02:04;101852.03;;;10.73;77.61
45275;BME280;31019;43.780;25.948;2023-03-13T09:04:31;101859.31;;;10.25;84.89
45275;BME280;31019;43.780;25.948;2023-03-13T09:06:58;101849.09;;;11.80;73.37
45275;BME280;31019;43.780;25.948;2023-03-13T09:09:25;101850.03;;;9.98;75.32
45275;BME280;31019;43.780;25.948;2023-03-13T09:11:52;101855.25;;;10.69;70.32
45275;BME280;31019;43.780;25.948;2023-03-13T09:14:18;101845.78;;;11.49;80.25
45275;BME280;31019;43.780;25.948;2023-03-13T09:16:46;101845.00;;;12.85;78.83
45275;BME280;31019;43.780;25.948;2023-03-13T09:19:14;101857.22;;;13.64;72.56
45275;BME280;31019;43.780;25.948;2023-03-13T09:21:40;101847.25;;;13.38;75.47
45275;BME280;31019;43.780;25.948;2023-03-13T09:24:07;101851.94;;;13.36;66.47
45275;BME280;31019;43.780;25.948;2023-03-13T09:26:34;101854.31;;;12.46;67.89
45275;BME280;31019;43.780;25.948;2023-03-13T09:29:01;101844.13;;;13.06;72.08
45275;BME280;31019;43.780;25.948;2023-03-13T09:31:29;101846.75;;;13.27;67.19
45275;BME280;31019;43.780;25.948;2023-03-13T09:33:57;101858.06;;;11.94;63.65
45275;BME280;31019;43.780;25.948;2023-03-13T09:36:25;101854.22;;;11.52;64.96
45275;BME280;31019;43.780;25.948;2023-03-13T09:38:53;101853.25;;;11.38;73.35
45275;BME280;31019;43.780;25.948;2023-03-13T09:41:24;101849.75;;;11.23;72.92
45275;BME280;31019;43.780;25.948;2023-03-13T09:43:57;101850.00;;;11.73;82.80
45275;BME280;31019;43.780;25.948;2023-03-13T09:46:32;101847.28;;;12.88;78.22
45275;BME280;31019;43.780;25.948;2023-03-13T09:49:08;101844.13;;;13.34;65.15
45275;BME280;31019;43.780;25.948;2023-03-13T09:51:39;101841.84;;;11.74;61.95
45275;BME280;31019;43.780;25.948;2023-03-13T09:54:24;101841.81;;;14.34;65.88
45275;BME280;31019;43.780;25.948;2023-03-13T09:56:56;101836.94;;;14.91;56.60
45275;BME280;31019;43.780;25.948;2023-03-13T09:59:29;101826.97;;;15.38;59.35
45275;BME280;31019;43.780;25.948;2023-03-13T10:02:03;101830.75;;;12.28;59.04
45275;BME280;31019;43.780;25.948;2023-03-13T10:04:37;101824.50;;;14.03;61.18
45275;BME280;31019;43.780;25.948;2023-03-13T10:07:09;101822.69;;;12.00;63.97
45275;BME280;31019;43.780;25.948;2023-03-13T10:09:36;101820.06;;;12.22;70.63
45275;BME280;31019;43.780;25.948;2023-03-13T10:12:10;101816.16;;;14.86;54.93
45275;BME280;31019;43.780;25.948;2023-03-13T10:14:42;101816.53;;;11.34;55.65
45275;BME280;31019;43.780;25.948;2023-03-13T10:17:17;101811.63;;;15.71;53.85
45275;BME280;31019;43.780;25.948;2023-03-13T10:19:53;101805.03;;;16.62;51.33
45275;BME280;31019;43.780;25.948;2023-03-13T10:22:23;101804.88;;;15.49;47.14
45275;BME280;31019;43.780;25.948;2023-03-13T10:24:55;101814.34;;;13.72;61.04
45275;BME280;31019;43.780;25.948;2023-03-13T10:27:23;101804.75;;;15.82;56.07
45275;BME280;31019;43.780;25.948;2023-03-13T10:29:50;101795.38;;;17.05;50.29
45275;BME280;31019;43.780;25.948;2023-03-13T10:32:17;101799.31;;;13.64;47.47
45275;BME280;31019;43.780;25.948;2023-03-13T10:34:49;101800.66;;;14.02;50.36
45275;BME280;31019;43.780;25.948;2023-03-13T10:37:21;101789.63;;;14.98;57.36
45275;BME280;31019;43.780;25.948;2023-03-13T10:39:48;101781.53;;;15.11;52.74
45275;BME280;31019;43.780;25.948;2023-03-13T10:42:23;101774.94;;;17.22;48.59
45275;BME280;31019;43.780;25.948;2023-03-13T10:44:56;101782.38;;;13.98;45.42
45275;BME280;31019;43.780;25.948;2023-03-13T10:47:24;101773.69;;;15.23;53.29
45275;BME280;31019;43.780;25.948;2023-03-13T10:49:55;101767.00;;;16.22;47.06
45275;BME280;31019;43.780;25.948;2023-03-13T10:52:31;101778.69;;;14.13;47.10
45275;BME280;31019;43.780;25.948;2023-03-13T10:55:00;101756.75;;;16.87;46.63
45275;BME280;31019;43.780;25.948;2023-03-13T10:57:29;101755.44;;;13.80;49.06
45275;BME280;31019;43.780;25.948;2023-03-13T10:59:57;101742.34;;;16.13;47.92
45275;BME280;31019;43.780;25.948;2023-03-13T11:02:27;101737.69;;;16.52;46.63
45275;BME280;31019;43.780;25.948;2023-03-13T11:04:59;101733.38;;;18.15;44.23
45275;BME280;31019;43.780;25.948;2023-03-13T11:07:28;101727.78;;;17.75;41.86
45275;BME280;31019;43.780;25.948;2023-03-13T11:10:01;101725.09;;;17.45;45.00
45275;BME280;31019;43.780;25.948;2023-03-13T11:12:34;101730.13;;;14.96;44.87
45275;BME280;31019;43.780;25.948;2023-03-13T11:15:02;101727.50;;;14.09;48.80
45275;BME280;31019;43.780;25.948;2023-03-13T11:17:33;101725.66;;;14.83;49.73
45275;BME280;31019;43.780;25.948;2023-03-13T11:20:25;101727.34;;;16.06;44.97
45275;BME280;31019;43.780;25.948;2023-03-13T11:23:03;101716.38;;;17.79;40.21
45275;BME280;31019;43.780;25.948;2023-03-13T11:25:34;101714.50;;;16.58;47.24
45275;BME280;31019;43.780;25.948;2023-03-13T11:28:25;101720.00;;;16.88;40.47
45275;BME280;31019;43.780;25.948;2023-03-13T11:31:04;101712.00;;;18.32;40.42
45275;BME280;31019;43.780;25.948;2023-03-13T11:33:37;101707.88;;;15.08;44.37
45275;BME280;31019;43.780;25.948;2023-03-13T11:36:14;101698.09;;;15.27;43.33
45275;BME280;31019;43.780;25.948;2023-03-13T11:38:47;101692.47;;;18.84;40.45
45275;BME280;31019;43.780;25.948;2023-03-13T11:41:29;101711.31;;;18.37;39.91
45275;BME280;31019;43.780;25.948;2023-03-13T11:44:15;101704.28;;;18.36;34.83
45275;BME280;31019;43.780;25.948;2023-03-13T11:46:53;101694.44;;;18.06;35.27
45275;BME280;31019;43.780;25.948;2023-03-13T11:49:35;101688.91;;;17.47;36.19
45275;BME280;31019;43.780;25.948;2023-03-13T11:52:15;101689.41;;;17.26;41.50
45275;BME280;31019;43.780;25.948;2023-03-13T11:55:10;101683.69;;;14.83;40.80
45275;BME280;31019;43.780;25.948;2023-03-13T11:57:46;101683.03;;;17.08;39.26
45275;BME280;31019;43.780;25.948;2023-03-13T12:00:27;101694.03;;;14.00;43.30
45275;BME280;31019;43.780;25.948;2023-03-13T12:02:58;101675.91;;;18.40;36.30
45275;BME280;31019;43.780;25.948;2023-03-13T12:05:34;101683.06;;;17.20;35.95
45275;BME280;31019;43.780;25.948;2023-03-13T12:08:10;101675.91;;;17.74;35.74
45275;BME280;31019;43.780;25.948;2023-03-13T12:10:42;101669.06;;;18.84;34.37
45275;BME280;31019;43.780;25.948;2023-03-13T12:13:11;101666.09;;;17.08;36.97
45275;BME280;31019;43.780;25.948;2023-03-13T12:15:42;101664.88;;;17.94;35.82
45275;BME280;31019;43.780;25.948;2023-03-13T12:18:16;101650.03;;;17.92;37.30
45275;BME280;31019;43.780;25.948;2023-03-13T12:20:43;101648.59;;;16.87;38.08
45275;BME280;31019;43.780;25.948;2023-03-13T12:23:21;101640.69;;;17.40;37.68
45275;BME280;31019;43.780;25.948;2023-03-13T12:25:52;101648.41;;;14.08;38.64
45275;BME280;31019;43.780;25.948;2023-03-13T12:28:32;101653.06;;;14.46;41.07
45275;BME280;31019;43.780;25.948;2023-03-13T12:31:08;101642.69;;;18.46;39.13
45275;BME280;31019;43.780;25.948;2023-03-13T12:33:41;101649.50;;;16.81;40.08
45275;BME280;31019;43.780;25.948;2023-03-13T12:36:12;101653.75;;;17.18;39.53
45275;BME280;31019;43.780;25.948;2023-03-13T12:38:46;101651.41;;;17.94;39.74
45275;BME280;31019;43.780;25.948;2023-03-13T12:41:20;101647.09;;;16.72;36.57
45275;BME280;31019;43.780;25.948;2023-03-13T12:43:50;101650.09;;;17.31;36.55
45275;BME280;31019;43.780;25.948;2023-03-13T12:46:34;101640.34;;;16.88;36.97
45275;BME280;31019;43.780;25.948;2023-03-13T12:52:24;101636.69;;;13.83;38.95